首页
METAR-TAF:

METAR-TAF

机场 :

Shawbury, 英格兰

纬度: 52-48N, 经度: 002-40W, 海拔: 76米

当前天气观测

该预报发布于23分钟前的14:50 UTC
风速3节,风向
温度 20°C
湿度 73%
气压 1020 hPa
能见度10公里或以上
散云层高于2300英尺
多云层高于3000英尺

METAR: EGOS 241450Z 36003KT 9999 SCT023 BKN030 20/15 Q1020 TEMPO FEW024 RMK WHT TEMPO BLU

时间: 16:13 (15:13 UTC)

预报

该预报发布于1小时和23分钟前的13:50 UTC
预报有效从24日的 15点(UTC)到 24日的 18点(UTC)
风速7节,风向西
能见度10公里或以上
少量云层高于2000英尺
散云层高于2500英尺
几率 30% :
短暂存在
从 24日的 15点(UTC)到 24日的 17点(UTC)
能見度: 7000
多云层高于1800英尺, 塔状积云.
阵雨

TAF: EGOS 241350Z 2415/2418 28007KT 9999 FEW020 SCT025 PROB30 TEMPO 2415/2417 7000 SHRA BKN018TCU

超过4000个机场的气象观测和天气预报(METAR&TAF报告)。

可查询的气象台以黄色和红色小点在地图上表示。

将鼠标移到小点上方,可查看气象台名称。

然后点击查看天气观测和预报。

如需切换地图:点击带黑十字的绿色按钮放大地图;点击带横线的绿色按钮缩小地图;或者点击绿色箭头查看邻近地区的地图。


METAR-TAF: